This is the latest recevied weather packets stored in our database for station/object SP2ARK-10. If no packets are shown the sender has not sent any weather packets the latest 10 day(s).
| Time | Temp. | Humidity | Pressure | Rain* | Wind** | Luminosity | Snow |
|---|---|---|---|---|---|---|---|
| 1777907160 | 27.78° C | 55% | 1016 hPa | - | - | - | - |
| 1777898153 | 26.67° C | 54% | 1016.7 hPa | - | - | - | - |
| 1777897252 | 26.67° C | 54% | 1016.6 hPa | - | - | - | - |
| 1777896351 | 26.11° C | 55% | 1016.7 hPa | - | - | - | - |
| 1777895450 | 26.11° C | 55% | 1016.9 hPa | - | - | - | - |
| 1777894549 | 25.56° C | 55% | 1017 hPa | - | - | - | - |
| 1777893648 | 25° C | 56% | 1017.2 hPa | - | - | - | - |
| 1777892747 | 25° C | 56% | 1017.2 hPa | - | - | - | - |
| 1777890947 | 23.89° C | 57% | 1017.4 hPa | - | - | - | - |
| 1777890046 | 23.33° C | 58% | 1017.5 hPa | - | - | - | - |
| 1777889145 | 22.78° C | 59% | 1017.7 hPa | - | - | - | - |
| 1777888244 | 22.78° C | 59% | 1017.8 hPa | - | - | - | - |
| 1777887344 | 22.22° C | 60% | 1017.8 hPa | - | - | - | - |
| 1777886443 | 21.67° C | 61% | 1017.8 hPa | - | - | - | - |
| 1777885543 | 21.11° C | 61% | 1018 hPa | - | - | - | - |
| 1777884642 | 21.11° C | 61% | 1018 hPa | - | - | - | - |
| 1777883742 | 20.56° C | 62% | 1017.9 hPa | - | - | - | - |
| 1777882841 | 20.56° C | 61% | 1017.8 hPa | - | - | - | - |
| 1777881941 | 20° C | 61% | 1017.6 hPa | - | - | - | - |
| 1777881040 | 19.44° C | 62% | 1017.6 hPa | - | - | - | - |
| 1777880140 | 19.44° C | 62% | 1017.5 hPa | - | - | - | - |
| 1777879240 | 18.89° C | 61% | 1017.8 hPa | - | - | - | - |
| 1777878339 | 18.33° C | 62% | 1017.6 hPa | - | - | - | - |
| 1777877438 | 18.33° C | 62% | 1017.5 hPa | - | - | - | - |
| 1777876538 | 17.78° C | 62% | 1017.6 hPa | - | - | - | - |
* Rain since midnight (hover to see other rain measurements)
** Current wind speed in m/s (hover to see current wind gust speed)